EWG6ND LEIB-EDDH
Flight info
| Callsign | EWG6ND |
|---|---|
| Flight time | 2h 36m |
| Altitude | 36000 |
| Route | KABRE DCT ELTAN N853 LUMAS DCT MAXIR DCT LUSOL DCT BODRU DCT OKTET DCT IRMAR DCT KINES DCT VANAS DCT ESOKO DCT GODRA DCT LOKTA DCT TEDGO DCT HAREM DCT LOHRE DCT MASEK DCT ELNAT P605 NOLGO NOLGO3S |
| Aircraft | A321/M-SDE2E3FGIJ1LORWXY/HB1 |
Departure
| Time | 2026-04-25 13:37 |
|---|---|
| Airport | Ibiza Airport (LEIB) |
Arrival
| Time | 2026-04-25 16:13 |
|---|---|
| Airport | Hamburg Helmut Schmidt Airport (EDDH) |
| Time | Latitude | Longitude | Altitude | Speed | Heading |
|---|---|---|---|---|---|
| 2026-04-25 13:00 | 38.87620 | 1.37059 | 9 ft | 0 kts | 332° |
| 2026-04-25 13:03 | 38.87592 | 1.36992 | 10 ft | 0 kts | 332° |
| 2026-04-25 13:26 | 38.87586 | 1.36996 | 9 ft | 4 kts | 332° |
| 2026-04-25 13:26 | 38.87562 | 1.37012 | 10 ft | 4 kts | 332° |
| 2026-04-25 13:26 | 38.87544 | 1.37024 | 9 ft | 4 kts | 310° |
| 2026-04-25 13:27 | 38.87540 | 1.37048 | 10 ft | 3 kts | 242° |
| 2026-04-25 13:27 | 38.87550 | 1.37073 | 11 ft | 1 kts | 242° |
| 2026-04-25 13:27 | 38.87551 | 1.37074 | 11 ft | 0 kts | 242° |
| 2026-04-25 13:31 | 38.87550 | 1.37074 | 10 ft | 0 kts | 242° |
| 2026-04-25 13:31 | 38.87547 | 1.37066 | 9 ft | 3 kts | 242° |
| 2026-04-25 13:31 | 38.87526 | 1.37014 | 10 ft | 10 kts | 242° |
| 2026-04-25 13:32 | 38.87492 | 1.36933 | 9 ft | 11 kts | 242° |
| 2026-04-25 13:32 | 38.87456 | 1.36846 | 8 ft | 11 kts | 242° |
| 2026-04-25 13:32 | 38.87401 | 1.36800 | 8 ft | 10 kts | 169° |
| 2026-04-25 13:32 | 38.87339 | 1.36839 | 8 ft | 10 kts | 153° |
| 2026-04-25 13:33 | 38.87282 | 1.36847 | 9 ft | 8 kts | 216° |
| 2026-04-25 13:33 | 38.87252 | 1.36783 | 9 ft | 9 kts | 242° |
| 2026-04-25 13:33 | 38.87218 | 1.36697 | 9 ft | 14 kts | 243° |
| 2026-04-25 13:33 | 38.87170 | 1.36578 | 8 ft | 16 kts | 242° |
| 2026-04-25 13:34 | 38.87117 | 1.36453 | 8 ft | 16 kts | 242° |
| 2026-04-25 13:34 | 38.87063 | 1.36323 | 8 ft | 17 kts | 242° |
| 2026-04-25 13:34 | 38.87007 | 1.36187 | 8 ft | 17 kts | 242° |
| 2026-04-25 13:34 | 38.86950 | 1.36047 | 8 ft | 18 kts | 242° |
| 2026-04-25 13:35 | 38.86894 | 1.35912 | 8 ft | 15 kts | 242° |
| 2026-04-25 13:35 | 38.86859 | 1.35831 | 8 ft | 9 kts | 232° |
| 2026-04-25 13:35 | 38.86808 | 1.35827 | 9 ft | 6 kts | 152° |
| 2026-04-25 13:35 | 38.86773 | 1.35852 | 7 ft | 7 kts | 151° |
| 2026-04-25 13:36 | 38.86722 | 1.35891 | 5 ft | 9 kts | 139° |
| 2026-04-25 13:36 | 38.86720 | 1.35951 | 14 ft | 6 kts | 65° |
| 2026-04-25 13:36 | 38.86776 | 1.36086 | 5 ft | 45 kts | 62° |
| 2026-04-25 13:36 | 38.87035 | 1.36708 | 9 ft | 111 kts | 62° |
| 2026-04-25 13:37 | 38.87488 | 1.37799 | 17 ft | 163 kts | 63° |
| 2026-04-25 13:37 | 38.88021 | 1.39102 | 661 ft | 163 kts | 64° |
| 2026-04-25 13:37 | 38.88401 | 1.40439 | 1348 ft | 162 kts | 79° |
| 2026-04-25 13:37 | 38.88654 | 1.41929 | 1662 ft | 181 kts | 77° |
| 2026-04-25 13:38 | 38.88947 | 1.43595 | 1847 ft | 200 kts | 78° |
| 2026-04-25 13:38 | 38.89262 | 1.45370 | 2270 ft | 206 kts | 77° |
| 2026-04-25 13:38 | 38.89585 | 1.47177 | 2828 ft | 208 kts | 77° |
| 2026-04-25 13:38 | 38.89910 | 1.48992 | 3404 ft | 209 kts | 77° |
| 2026-04-25 13:39 | 38.90238 | 1.50818 | 3976 ft | 211 kts | 77° |
| 2026-04-25 13:39 | 38.90569 | 1.52665 | 4517 ft | 214 kts | 77° |
| 2026-04-25 13:39 | 38.90801 | 1.54559 | 5041 ft | 217 kts | 91° |
| 2026-04-25 13:39 | 38.90652 | 1.56555 | 5280 ft | 235 kts | 97° |
| 2026-04-25 13:40 | 38.90443 | 1.58724 | 5463 ft | 255 kts | 97° |
| 2026-04-25 13:40 | 38.90220 | 1.61028 | 5953 ft | 263 kts | 97° |
| 2026-04-25 13:40 | 38.89996 | 1.63368 | 6609 ft | 266 kts | 97° |
| 2026-04-25 13:40 | 38.89724 | 1.65728 | 7217 ft | 269 kts | 104° |
| 2026-04-25 13:41 | 38.89065 | 1.67981 | 7833 ft | 272 kts | 115° |
| 2026-04-25 13:41 | 38.88255 | 1.70188 | 8450 ft | 275 kts | 114° |
| 2026-04-25 13:41 | 38.87441 | 1.72422 | 9075 ft | 278 kts | 114° |
| 2026-04-25 13:41 | 38.86623 | 1.74674 | 9726 ft | 280 kts | 114° |
| 2026-04-25 13:42 | 38.85799 | 1.76947 | 10293 ft | 284 kts | 114° |
| 2026-04-25 13:42 | 38.84938 | 1.79330 | 10442 ft | 304 kts | 114° |
| 2026-04-25 13:42 | 38.84019 | 1.81869 | 10571 ft | 323 kts | 114° |
| 2026-04-25 13:42 | 38.83044 | 1.84546 | 10767 ft | 338 kts | 114° |
| 2026-04-25 13:43 | 38.82041 | 1.87307 | 11184 ft | 344 kts | 113° |
| 2026-04-25 13:43 | 38.81332 | 1.90238 | 11705 ft | 346 kts | 99° |
| 2026-04-25 13:43 | 38.81177 | 1.93318 | 12246 ft | 348 kts | 86° |
| 2026-04-25 13:43 | 38.81589 | 1.96384 | 12750 ft | 352 kts | 73° |
| 2026-04-25 13:44 | 38.82501 | 1.99313 | 13254 ft | 355 kts | 67° |
| 2026-04-25 13:44 | 38.83489 | 2.02214 | 13838 ft | 357 kts | 67° |
| 2026-04-25 13:44 | 38.84479 | 2.05150 | 14304 ft | 360 kts | 67° |
| 2026-04-25 13:44 | 38.85470 | 2.08109 | 14809 ft | 362 kts | 67° |
| 2026-04-25 13:45 | 38.86465 | 2.11088 | 15259 ft | 365 kts | 67° |
| 2026-04-25 13:45 | 38.87467 | 2.14096 | 15713 ft | 368 kts | 67° |
| 2026-04-25 13:45 | 38.88476 | 2.17124 | 16182 ft | 370 kts | 67° |
| 2026-04-25 13:45 | 38.89495 | 2.20177 | 16623 ft | 374 kts | 67° |
| 2026-04-25 13:46 | 38.90521 | 2.23251 | 17100 ft | 376 kts | 67° |
| 2026-04-25 13:46 | 38.91539 | 2.26307 | 17529 ft | 379 kts | 67° |
| 2026-04-25 13:46 | 38.92580 | 2.29426 | 17990 ft | 381 kts | 67° |
| 2026-04-25 13:46 | 38.93628 | 2.32569 | 18385 ft | 385 kts | 67° |
| 2026-04-25 13:47 | 38.94681 | 2.35745 | 18736 ft | 388 kts | 68° |
| 2026-04-25 13:47 | 38.95739 | 2.38941 | 19101 ft | 390 kts | 68° |
| 2026-04-25 13:47 | 38.96818 | 2.42195 | 19450 ft | 393 kts | 68° |
| 2026-04-25 13:47 | 38.97890 | 2.45429 | 19827 ft | 394 kts | 68° |
| 2026-04-25 13:48 | 38.98966 | 2.48685 | 20188 ft | 397 kts | 68° |
| 2026-04-25 13:48 | 39.00047 | 2.51957 | 20569 ft | 398 kts | 68° |
| 2026-04-25 13:48 | 39.01133 | 2.55248 | 20904 ft | 401 kts | 68° |
| 2026-04-25 13:48 | 39.02225 | 2.58560 | 21267 ft | 403 kts | 68° |
| 2026-04-25 13:49 | 39.03373 | 2.61857 | 21595 ft | 406 kts | 61° |
| 2026-04-25 13:49 | 39.05060 | 2.64716 | 21911 ft | 410 kts | 45° |
| 2026-04-25 13:49 | 39.07405 | 2.66903 | 22241 ft | 414 kts | 30° |
| 2026-04-25 13:49 | 39.09891 | 2.68698 | 22585 ft | 416 kts | 29° |
| 2026-04-25 13:50 | 39.12422 | 2.70506 | 22987 ft | 416 kts | 29° |
| 2026-04-25 13:50 | 39.14962 | 2.72313 | 23351 ft | 418 kts | 29° |
| 2026-04-25 13:50 | 39.17509 | 2.74130 | 23704 ft | 419 kts | 29° |
| 2026-04-25 13:50 | 39.20066 | 2.75965 | 23978 ft | 422 kts | 29° |
| 2026-04-25 13:51 | 39.22625 | 2.77811 | 24269 ft | 423 kts | 29° |
| 2026-04-25 13:51 | 39.25207 | 2.79676 | 24543 ft | 425 kts | 29° |
| 2026-04-25 13:51 | 39.27792 | 2.81549 | 24822 ft | 427 kts | 29° |
| 2026-04-25 13:51 | 39.30383 | 2.83427 | 25086 ft | 429 kts | 29° |
| 2026-04-25 13:52 | 39.32993 | 2.85316 | 25375 ft | 430 kts | 29° |
| 2026-04-25 13:52 | 39.35608 | 2.87210 | 25673 ft | 431 kts | 29° |
| 2026-04-25 13:52 | 39.38229 | 2.89110 | 25956 ft | 433 kts | 29° |
| 2026-04-25 13:52 | 39.40861 | 2.91019 | 26224 ft | 435 kts | 29° |
| 2026-04-25 13:53 | 39.43503 | 2.92936 | 26518 ft | 436 kts | 29° |
| 2026-04-25 13:53 | 39.46157 | 2.94863 | 26762 ft | 438 kts | 29° |
| 2026-04-25 13:53 | 39.48820 | 2.96801 | 27033 ft | 440 kts | 29° |
| 2026-04-25 13:53 | 39.51494 | 2.98750 | 27274 ft | 442 kts | 29° |
| 2026-04-25 13:54 | 39.54180 | 3.00709 | 27533 ft | 444 kts | 29° |
| 2026-04-25 13:54 | 39.56876 | 3.02676 | 27788 ft | 446 kts | 29° |
| 2026-04-25 13:54 | 39.58664 | 3.03979 | 27961 ft | 447 kts | 29° |
| 2026-04-25 13:54 | 39.61377 | 3.05958 | 28217 ft | 448 kts | 29° |
| 2026-04-25 13:55 | 39.64100 | 3.07947 | 28475 ft | 450 kts | 29° |
| 2026-04-25 13:55 | 39.66832 | 3.09943 | 28708 ft | 452 kts | 29° |
| 2026-04-25 13:55 | 39.69575 | 3.11949 | 28929 ft | 453 kts | 29° |
| 2026-04-25 13:55 | 39.72328 | 3.13964 | 29133 ft | 455 kts | 29° |
| 2026-04-25 13:56 | 39.75091 | 3.15989 | 29345 ft | 457 kts | 29° |
| 2026-04-25 13:56 | 39.77861 | 3.18026 | 29544 ft | 458 kts | 29° |
| 2026-04-25 13:56 | 39.80632 | 3.20067 | 29794 ft | 458 kts | 29° |
| 2026-04-25 13:56 | 39.83401 | 3.22110 | 30011 ft | 459 kts | 29° |
| 2026-04-25 13:57 | 39.86174 | 3.24158 | 30268 ft | 458 kts | 29° |
| 2026-04-25 13:57 | 39.88011 | 3.25514 | 30423 ft | 458 kts | 29° |
| 2026-04-25 13:57 | 39.91711 | 3.28254 | 30709 ft | 457 kts | 29° |
| 2026-04-25 13:57 | 39.94475 | 3.30299 | 30926 ft | 457 kts | 29° |
| 2026-04-25 13:58 | 39.97240 | 3.32340 | 31142 ft | 456 kts | 29° |
| 2026-04-25 13:58 | 40.00002 | 3.34379 | 31360 ft | 456 kts | 29° |
| 2026-04-25 13:58 | 40.02756 | 3.36420 | 31617 ft | 455 kts | 29° |
| 2026-04-25 13:58 | 40.05467 | 3.38432 | 31833 ft | 454 kts | 30° |
| 2026-04-25 13:59 | 40.08212 | 3.40469 | 32049 ft | 453 kts | 30° |
| 2026-04-25 13:59 | 40.10955 | 3.42503 | 32261 ft | 453 kts | 30° |
| 2026-04-25 13:59 | 40.13695 | 3.44536 | 32475 ft | 453 kts | 30° |
| 2026-04-25 13:59 | 40.16433 | 3.46571 | 32671 ft | 452 kts | 30° |
| 2026-04-25 14:00 | 40.18276 | 3.47944 | 32818 ft | 452 kts | 30° |
| 2026-04-25 14:00 | 40.21892 | 3.50646 | 33085 ft | 452 kts | 30° |
| 2026-04-25 14:00 | 40.24620 | 3.52688 | 33292 ft | 452 kts | 30° |
| 2026-04-25 14:00 | 40.27348 | 3.54727 | 33483 ft | 451 kts | 30° |
| 2026-04-25 14:01 | 40.30077 | 3.56761 | 33694 ft | 451 kts | 30° |
| 2026-04-25 14:01 | 40.32803 | 3.58795 | 33878 ft | 451 kts | 30° |
| 2026-04-25 14:01 | 40.35525 | 3.60834 | 34086 ft | 450 kts | 30° |
| 2026-04-25 14:01 | 40.38244 | 3.62875 | 34262 ft | 450 kts | 30° |
| 2026-04-25 14:02 | 40.40964 | 3.64915 | 34419 ft | 450 kts | 30° |
| 2026-04-25 14:02 | 40.43684 | 3.66955 | 34564 ft | 450 kts | 30° |
| 2026-04-25 14:02 | 40.46406 | 3.69000 | 34701 ft | 451 kts | 30° |
| 2026-04-25 14:03 | 40.51848 | 3.73112 | 34987 ft | 451 kts | 30° |
| 2026-04-25 14:03 | 40.54572 | 3.75169 | 35140 ft | 452 kts | 30° |
| 2026-04-25 14:03 | 40.57298 | 3.77229 | 35262 ft | 452 kts | 30° |
| 2026-04-25 14:03 | 40.60018 | 3.79286 | 35420 ft | 452 kts | 30° |
| 2026-04-25 14:04 | 40.62748 | 3.81347 | 35556 ft | 452 kts | 30° |
| 2026-04-25 14:04 | 40.65473 | 3.83404 | 35764 ft | 451 kts | 30° |
| 2026-04-25 14:04 | 40.68191 | 3.85459 | 35921 ft | 450 kts | 30° |
| 2026-04-25 14:04 | 40.70868 | 3.87488 | 36088 ft | 450 kts | 30° |
| 2026-04-25 14:05 | 40.73584 | 3.89549 | 36145 ft | 451 kts | 30° |
| 2026-04-25 14:05 | 40.79021 | 3.93680 | 36150 ft | 451 kts | 30° |
| 2026-04-25 14:06 | 40.84458 | 3.97820 | 36157 ft | 451 kts | 30° |
| 2026-04-25 14:06 | 40.89896 | 4.01969 | 36152 ft | 451 kts | 30° |
| 2026-04-25 14:07 | 40.95328 | 4.06124 | 36151 ft | 452 kts | 30° |
| 2026-04-25 14:07 | 41.00768 | 4.10301 | 36158 ft | 452 kts | 30° |
| 2026-04-25 14:08 | 41.06214 | 4.14482 | 36180 ft | 453 kts | 30° |
| 2026-04-25 14:08 | 41.11667 | 4.18668 | 36173 ft | 453 kts | 30° |
| 2026-04-25 14:09 | 41.17116 | 4.22867 | 36176 ft | 452 kts | 30° |
| 2026-04-25 14:09 | 41.22553 | 4.27067 | 36184 ft | 452 kts | 30° |
| 2026-04-25 14:10 | 41.27982 | 4.31267 | 36165 ft | 451 kts | 30° |
| 2026-04-25 14:10 | 41.33402 | 4.35463 | 36175 ft | 451 kts | 30° |
| 2026-04-25 14:11 | 41.38787 | 4.39646 | 36175 ft | 451 kts | 30° |
| 2026-04-25 14:11 | 41.44205 | 4.43863 | 36170 ft | 451 kts | 30° |
| 2026-04-25 14:12 | 41.49623 | 4.48090 | 36177 ft | 451 kts | 30° |
| 2026-04-25 14:12 | 41.55050 | 4.52316 | 36162 ft | 452 kts | 30° |
| 2026-04-25 14:13 | 41.60474 | 4.56563 | 36157 ft | 452 kts | 30° |
| 2026-04-25 14:13 | 41.65895 | 4.60815 | 36171 ft | 451 kts | 30° |
| 2026-04-25 14:14 | 41.71301 | 4.65064 | 36162 ft | 451 kts | 30° |
| 2026-04-25 14:14 | 41.76701 | 4.69338 | 36159 ft | 451 kts | 30° |
| 2026-04-25 14:15 | 41.82078 | 4.73665 | 36157 ft | 451 kts | 30° |
| 2026-04-25 14:15 | 41.87451 | 4.78005 | 36157 ft | 451 kts | 30° |
| 2026-04-25 14:16 | 41.92827 | 4.82345 | 36153 ft | 451 kts | 30° |
| 2026-04-25 14:16 | 41.98209 | 4.86682 | 36152 ft | 451 kts | 30° |
| 2026-04-25 14:17 | 42.03587 | 4.91019 | 36150 ft | 451 kts | 30° |
| 2026-04-25 14:17 | 42.08964 | 4.95385 | 36152 ft | 451 kts | 30° |
| 2026-04-25 14:18 | 42.14338 | 4.99761 | 36150 ft | 451 kts | 30° |
| 2026-04-25 14:18 | 42.19710 | 5.04140 | 36150 ft | 451 kts | 30° |
| 2026-04-25 14:19 | 42.25082 | 5.08518 | 36152 ft | 451 kts | 30° |
| 2026-04-25 14:19 | 42.30449 | 5.12905 | 36148 ft | 451 kts | 30° |
| 2026-04-25 14:20 | 42.35815 | 5.17305 | 36143 ft | 451 kts | 30° |
| 2026-04-25 14:20 | 42.41185 | 5.21704 | 36141 ft | 451 kts | 30° |
| 2026-04-25 14:21 | 42.46554 | 5.26113 | 36133 ft | 451 kts | 30° |
| 2026-04-25 14:21 | 42.51913 | 5.30534 | 36137 ft | 451 kts | 30° |
| 2026-04-25 14:22 | 42.57281 | 5.34966 | 36134 ft | 452 kts | 30° |
| 2026-04-25 14:22 | 42.62648 | 5.39408 | 36133 ft | 452 kts | 30° |
| 2026-04-25 14:23 | 42.68012 | 5.43855 | 36135 ft | 452 kts | 30° |
| 2026-04-25 14:23 | 42.73338 | 5.48279 | 36128 ft | 451 kts | 30° |
| 2026-04-25 14:24 | 42.78690 | 5.52739 | 36128 ft | 451 kts | 30° |
| 2026-04-25 14:24 | 42.84047 | 5.57209 | 36128 ft | 451 kts | 30° |
| 2026-04-25 14:25 | 42.89403 | 5.61681 | 36126 ft | 451 kts | 30° |
| 2026-04-25 14:25 | 42.94761 | 5.66163 | 36121 ft | 452 kts | 30° |
| 2026-04-25 14:26 | 43.00120 | 5.70662 | 36114 ft | 452 kts | 30° |
| 2026-04-25 14:26 | 43.05477 | 5.75178 | 36112 ft | 452 kts | 30° |
| 2026-04-25 14:27 | 43.10836 | 5.79703 | 36105 ft | 453 kts | 30° |
| 2026-04-25 14:27 | 43.16202 | 5.84235 | 36099 ft | 453 kts | 30° |
| 2026-04-25 14:28 | 43.21576 | 5.88774 | 36094 ft | 454 kts | 30° |
| 2026-04-25 14:28 | 43.26942 | 5.93325 | 36094 ft | 454 kts | 30° |
| 2026-04-25 14:29 | 43.32318 | 5.97885 | 36091 ft | 454 kts | 30° |
| 2026-04-25 14:29 | 43.37779 | 6.02238 | 36072 ft | 453 kts | 21° |
| 2026-04-25 14:30 | 43.43799 | 6.04477 | 36066 ft | 447 kts | 4° |
| 2026-04-25 14:30 | 43.53109 | 6.05387 | 36073 ft | 448 kts | 2° |
| 2026-04-25 14:31 | 43.59325 | 6.06016 | 36074 ft | 448 kts | 2° |
| 2026-04-25 14:31 | 43.65538 | 6.06654 | 36079 ft | 448 kts | 2° |
| 2026-04-25 14:32 | 43.71761 | 6.07295 | 36080 ft | 448 kts | 2° |
| 2026-04-25 14:32 | 43.77920 | 6.08687 | 36079 ft | 452 kts | 17° |
| 2026-04-25 14:33 | 43.83669 | 6.12261 | 36080 ft | 454 kts | 24° |
| 2026-04-25 14:33 | 43.89301 | 6.16102 | 36086 ft | 454 kts | 24° |
| 2026-04-25 14:34 | 43.95006 | 6.20005 | 36081 ft | 455 kts | 24° |
| 2026-04-25 14:34 | 44.00684 | 6.23885 | 36078 ft | 455 kts | 24° |
| 2026-04-25 14:35 | 44.06324 | 6.27747 | 36093 ft | 455 kts | 24° |
| 2026-04-25 14:35 | 44.11998 | 6.31658 | 36093 ft | 455 kts | 24° |
| 2026-04-25 14:36 | 44.17672 | 6.35571 | 36086 ft | 455 kts | 24° |
| 2026-04-25 14:36 | 44.23340 | 6.39478 | 36080 ft | 455 kts | 24° |
| 2026-04-25 14:37 | 44.29012 | 6.43398 | 36087 ft | 455 kts | 24° |
| 2026-04-25 14:37 | 44.34687 | 6.47325 | 36092 ft | 455 kts | 24° |
| 2026-04-25 14:38 | 44.40359 | 6.51260 | 36089 ft | 455 kts | 24° |
| 2026-04-25 14:38 | 44.46025 | 6.55207 | 36093 ft | 455 kts | 24° |
| 2026-04-25 14:39 | 44.51688 | 6.59164 | 36090 ft | 455 kts | 24° |
| 2026-04-25 14:39 | 44.57353 | 6.63126 | 36090 ft | 455 kts | 24° |
| 2026-04-25 14:40 | 44.63017 | 6.67095 | 36090 ft | 455 kts | 24° |
| 2026-04-25 14:40 | 44.68682 | 6.71066 | 36098 ft | 455 kts | 24° |
| 2026-04-25 14:41 | 44.74339 | 6.75049 | 36098 ft | 455 kts | 24° |
| 2026-04-25 14:41 | 44.80225 | 6.78144 | 36111 ft | 450 kts | 8° |
| 2026-04-25 14:42 | 44.84320 | 6.78737 | 36106 ft | 445 kts | 356° |
| 2026-04-25 14:42 | 44.92587 | 6.78196 | 36106 ft | 444 kts | 355° |
| 2026-04-25 14:43 | 44.98725 | 6.77807 | 36110 ft | 444 kts | 355° |
| 2026-04-25 14:43 | 45.04907 | 6.77408 | 36129 ft | 445 kts | 355° |
| 2026-04-25 14:44 | 45.11081 | 6.76995 | 36135 ft | 444 kts | 354° |
| 2026-04-25 14:44 | 45.16261 | 6.76647 | 36134 ft | 444 kts | 354° |
| 2026-04-25 14:45 | 45.22437 | 6.76236 | 36152 ft | 444 kts | 354° |
| 2026-04-25 14:45 | 45.28602 | 6.75827 | 36150 ft | 443 kts | 354° |
| 2026-04-25 14:46 | 45.34752 | 6.75415 | 36155 ft | 443 kts | 354° |
| 2026-04-25 14:46 | 45.40870 | 6.75026 | 36159 ft | 443 kts | 357° |
| 2026-04-25 14:47 | 45.46015 | 6.75958 | 36158 ft | 448 kts | 13° |
| 2026-04-25 14:47 | 45.49868 | 6.78130 | 36157 ft | 453 kts | 26° |
| 2026-04-25 14:47 | 45.52593 | 6.80370 | 36155 ft | 453 kts | 27° |
| 2026-04-25 14:48 | 45.58045 | 6.84902 | 36163 ft | 453 kts | 27° |
| 2026-04-25 14:48 | 45.63497 | 6.89430 | 36156 ft | 453 kts | 27° |
| 2026-04-25 14:49 | 45.68946 | 6.93966 | 36155 ft | 453 kts | 27° |
| 2026-04-25 14:49 | 45.74388 | 6.98509 | 36113 ft | 453 kts | 27° |
| 2026-04-25 14:50 | 45.79830 | 7.03066 | 36105 ft | 453 kts | 27° |
| 2026-04-25 14:50 | 45.85271 | 7.07625 | 36097 ft | 453 kts | 27° |
| 2026-04-25 14:51 | 45.90701 | 7.12195 | 36103 ft | 452 kts | 27° |
| 2026-04-25 14:51 | 45.96125 | 7.16770 | 36117 ft | 452 kts | 27° |
| 2026-04-25 14:52 | 46.01543 | 7.21351 | 36121 ft | 452 kts | 27° |
| 2026-04-25 14:52 | 46.06047 | 7.25175 | 36105 ft | 452 kts | 27° |
| 2026-04-25 14:53 | 46.12372 | 7.30555 | 36082 ft | 451 kts | 27° |
| 2026-04-25 14:53 | 46.17745 | 7.35136 | 36090 ft | 452 kts | 27° |
| 2026-04-25 14:54 | 46.23150 | 7.39753 | 36084 ft | 451 kts | 27° |
| 2026-04-25 14:54 | 46.28550 | 7.44369 | 36086 ft | 451 kts | 27° |
| 2026-04-25 14:55 | 46.33940 | 7.48986 | 36108 ft | 450 kts | 27° |
| 2026-04-25 14:55 | 46.39327 | 7.53616 | 36147 ft | 450 kts | 27° |
| 2026-04-25 14:56 | 46.44710 | 7.58253 | 36134 ft | 450 kts | 27° |
| 2026-04-25 14:56 | 46.50084 | 7.62906 | 36126 ft | 449 kts | 27° |
| 2026-04-25 14:57 | 46.55451 | 7.67563 | 36125 ft | 449 kts | 27° |
| 2026-04-25 14:57 | 46.60811 | 7.72227 | 36117 ft | 449 kts | 27° |
| 2026-04-25 14:58 | 46.66123 | 7.77002 | 36113 ft | 449 kts | 28° |
| 2026-04-25 14:58 | 46.71410 | 7.81854 | 36115 ft | 449 kts | 28° |
| 2026-04-25 14:59 | 46.76697 | 7.86692 | 36110 ft | 448 kts | 28° |
| 2026-04-25 14:59 | 46.81987 | 7.91510 | 36109 ft | 448 kts | 28° |
| 2026-04-25 15:00 | 46.87279 | 7.96332 | 36105 ft | 448 kts | 28° |
| 2026-04-25 15:00 | 46.92555 | 8.01165 | 36099 ft | 448 kts | 28° |
| 2026-04-25 15:01 | 46.97830 | 8.06010 | 36108 ft | 447 kts | 28° |
| 2026-04-25 15:01 | 47.03094 | 8.10863 | 36104 ft | 447 kts | 28° |
| 2026-04-25 15:02 | 47.08351 | 8.15706 | 36109 ft | 446 kts | 28° |
| 2026-04-25 15:02 | 47.13600 | 8.20560 | 36111 ft | 446 kts | 28° |
| 2026-04-25 15:03 | 47.18850 | 8.25421 | 36121 ft | 446 kts | 28° |
| 2026-04-25 15:03 | 47.24092 | 8.30290 | 36130 ft | 446 kts | 28° |
| 2026-04-25 15:04 | 47.29327 | 8.35176 | 36139 ft | 445 kts | 28° |
| 2026-04-25 15:04 | 47.34557 | 8.40054 | 36135 ft | 445 kts | 28° |
| 2026-04-25 15:05 | 47.39778 | 8.44936 | 36115 ft | 444 kts | 28° |
| 2026-04-25 15:06 | 47.47591 | 8.52276 | 36114 ft | 443 kts | 28° |
| 2026-04-25 15:06 | 47.52800 | 8.57169 | 36117 ft | 443 kts | 29° |
| 2026-04-25 15:07 | 47.58005 | 8.62072 | 36111 ft | 443 kts | 29° |
| 2026-04-25 15:07 | 47.63195 | 8.66989 | 36115 ft | 443 kts | 29° |
| 2026-04-25 15:08 | 47.68354 | 8.71880 | 36123 ft | 443 kts | 29° |
| 2026-04-25 15:08 | 47.73545 | 8.76815 | 36119 ft | 443 kts | 30° |
| 2026-04-25 15:09 | 47.78728 | 8.81761 | 36114 ft | 443 kts | 30° |
| 2026-04-25 15:09 | 47.86511 | 8.89195 | 36109 ft | 443 kts | 30° |
| 2026-04-25 15:10 | 47.91694 | 8.94159 | 36125 ft | 443 kts | 30° |
| 2026-04-25 15:11 | 47.99458 | 9.01630 | 36121 ft | 442 kts | 30° |
| 2026-04-25 15:11 | 48.04628 | 9.06614 | 36109 ft | 442 kts | 30° |
| 2026-04-25 15:12 | 48.12378 | 9.14105 | 36110 ft | 442 kts | 30° |
| 2026-04-25 15:12 | 48.15933 | 9.16997 | 36103 ft | 437 kts | 19° |
| 2026-04-25 15:13 | 48.20802 | 9.18972 | 36107 ft | 431 kts | 4° |
| 2026-04-25 15:13 | 48.26763 | 9.19966 | 36099 ft | 431 kts | 4° |
| 2026-04-25 15:14 | 48.32728 | 9.20963 | 36113 ft | 431 kts | 4° |
| 2026-04-25 15:14 | 48.38654 | 9.21966 | 36102 ft | 431 kts | 4° |
| 2026-04-25 15:15 | 48.44613 | 9.22978 | 36101 ft | 431 kts | 4° |
| 2026-04-25 15:15 | 48.50580 | 9.23996 | 36098 ft | 431 kts | 4° |
| 2026-04-25 15:16 | 48.56544 | 9.25009 | 36105 ft | 431 kts | 4° |
| 2026-04-25 15:16 | 48.65488 | 9.26514 | 36111 ft | 431 kts | 3° |
| 2026-04-25 15:17 | 48.74438 | 9.27861 | 36111 ft | 431 kts | 2° |
| 2026-04-25 15:18 | 48.80400 | 9.28753 | 36111 ft | 431 kts | 3° |
| 2026-04-25 15:18 | 48.89347 | 9.30115 | 36108 ft | 431 kts | 3° |
| 2026-04-25 15:19 | 48.93340 | 9.30728 | 36118 ft | 431 kts | 3° |
| 2026-04-25 15:19 | 49.01277 | 9.31953 | 36109 ft | 431 kts | 3° |
| 2026-04-25 15:20 | 49.07243 | 9.32890 | 36109 ft | 431 kts | 3° |
| 2026-04-25 15:20 | 49.13211 | 9.33820 | 36105 ft | 431 kts | 2° |
| 2026-04-25 15:21 | 49.19138 | 9.34736 | 36117 ft | 431 kts | 2° |
| 2026-04-25 15:21 | 49.25148 | 9.35669 | 36114 ft | 431 kts | 2° |
| 2026-04-25 15:22 | 49.31073 | 9.36599 | 36103 ft | 431 kts | 3° |
| 2026-04-25 15:22 | 49.37047 | 9.37544 | 36123 ft | 431 kts | 2° |
| 2026-04-25 15:23 | 49.43021 | 9.38480 | 36117 ft | 431 kts | 2° |
| 2026-04-25 15:23 | 49.48994 | 9.39413 | 36116 ft | 431 kts | 2° |
| 2026-04-25 15:24 | 49.54962 | 9.40354 | 36117 ft | 431 kts | 2° |
| 2026-04-25 15:24 | 49.58961 | 9.40988 | 36133 ft | 431 kts | 2° |
| 2026-04-25 15:25 | 49.66904 | 9.42238 | 36122 ft | 431 kts | 2° |
| 2026-04-25 15:25 | 49.72868 | 9.43188 | 36121 ft | 431 kts | 2° |
| 2026-04-25 15:26 | 49.78829 | 9.44159 | 36118 ft | 430 kts | 2° |
| 2026-04-25 15:26 | 49.84787 | 9.45114 | 36133 ft | 430 kts | 2° |
| 2026-04-25 15:27 | 49.90733 | 9.46083 | 36123 ft | 430 kts | 2° |
| 2026-04-25 15:28 | 49.99652 | 9.47495 | 36114 ft | 429 kts | 2° |
| 2026-04-25 15:28 | 50.05593 | 9.48457 | 36126 ft | 429 kts | 2° |
| 2026-04-25 15:29 | 50.11527 | 9.49443 | 36120 ft | 428 kts | 2° |
| 2026-04-25 15:29 | 50.17451 | 9.50435 | 36117 ft | 428 kts | 2° |
| 2026-04-25 15:30 | 50.23370 | 9.51421 | 36111 ft | 428 kts | 2° |
| 2026-04-25 15:30 | 50.29280 | 9.52415 | 36123 ft | 427 kts | 2° |
| 2026-04-25 15:31 | 50.35151 | 9.53408 | 36116 ft | 427 kts | 2° |
| 2026-04-25 15:31 | 50.41052 | 9.54405 | 36111 ft | 426 kts | 2° |
| 2026-04-25 15:32 | 50.46948 | 9.55405 | 36109 ft | 426 kts | 2° |
| 2026-04-25 15:32 | 50.52835 | 9.56402 | 36120 ft | 426 kts | 2° |
| 2026-04-25 15:33 | 50.61677 | 9.57886 | 36111 ft | 426 kts | 2° |
| 2026-04-25 15:33 | 50.67573 | 9.58898 | 36108 ft | 426 kts | 2° |
| 2026-04-25 15:34 | 50.72476 | 9.59749 | 36111 ft | 426 kts | 2° |
| 2026-04-25 15:34 | 50.77413 | 9.60644 | 36110 ft | 427 kts | 2° |
| 2026-04-25 15:35 | 50.87210 | 9.62588 | 36108 ft | 427 kts | 3° |
| 2026-04-25 15:36 | 50.96053 | 9.64312 | 36122 ft | 427 kts | 2° |
| 2026-04-25 15:36 | 51.01948 | 9.65453 | 36116 ft | 427 kts | 2° |
| 2026-04-25 15:37 | 51.07837 | 9.66603 | 36112 ft | 426 kts | 2° |
| 2026-04-25 15:37 | 51.13716 | 9.67761 | 36110 ft | 426 kts | 2° |
| 2026-04-25 15:38 | 51.19596 | 9.68936 | 36099 ft | 424 kts | 2° |
| 2026-04-25 15:38 | 51.25436 | 9.69994 | 36098 ft | 422 kts | 1° |
| 2026-04-25 15:39 | 51.31277 | 9.70891 | 36104 ft | 422 kts | 0° |
| 2026-04-25 15:39 | 51.37123 | 9.71788 | 36121 ft | 422 kts | 1° |
| 2026-04-25 15:40 | 51.41985 | 9.72569 | 36147 ft | 422 kts | 1° |
| 2026-04-25 15:40 | 51.48777 | 9.73701 | 36133 ft | 422 kts | 1° |
| 2026-04-25 15:41 | 51.54616 | 9.74799 | 36124 ft | 422 kts | 2° |
| 2026-04-25 15:41 | 51.60481 | 9.75948 | 36117 ft | 422 kts | 2° |
| 2026-04-25 15:42 | 51.66267 | 9.77062 | 36107 ft | 420 kts | 1° |
| 2026-04-25 15:42 | 51.72055 | 9.78154 | 36060 ft | 419 kts | 1° |
| 2026-04-25 15:43 | 51.74946 | 9.78699 | 35807 ft | 418 kts | 1° |
| 2026-04-25 15:43 | 51.77830 | 9.79243 | 35544 ft | 417 kts | 1° |
| 2026-04-25 15:43 | 51.80704 | 9.79790 | 35016 ft | 416 kts | 1° |
| 2026-04-25 15:43 | 51.83575 | 9.80341 | 34389 ft | 415 kts | 1° |
| 2026-04-25 15:44 | 51.86438 | 9.80893 | 33807 ft | 413 kts | 1° |
| 2026-04-25 15:44 | 51.89282 | 9.81444 | 33248 ft | 410 kts | 1° |
| 2026-04-25 15:44 | 51.92102 | 9.81990 | 32727 ft | 406 kts | 1° |
| 2026-04-25 15:44 | 51.94891 | 9.82528 | 32216 ft | 403 kts | 1° |
| 2026-04-25 15:45 | 51.97662 | 9.83065 | 31700 ft | 399 kts | 1° |
| 2026-04-25 15:45 | 52.00409 | 9.83598 | 31183 ft | 396 kts | 1° |
| 2026-04-25 15:45 | 52.03132 | 9.84128 | 30671 ft | 392 kts | 1° |
| 2026-04-25 15:45 | 52.04924 | 9.84478 | 30332 ft | 390 kts | 1° |
| 2026-04-25 15:46 | 52.08508 | 9.85181 | 29590 ft | 385 kts | 1° |
| 2026-04-25 15:46 | 52.11152 | 9.85699 | 29110 ft | 380 kts | 1° |
| 2026-04-25 15:46 | 52.13762 | 9.86207 | 28623 ft | 376 kts | 1° |
| 2026-04-25 15:46 | 52.16342 | 9.86710 | 28144 ft | 371 kts | 1° |
| 2026-04-25 15:47 | 52.18888 | 9.87209 | 27678 ft | 366 kts | 1° |
| 2026-04-25 15:47 | 52.21406 | 9.87706 | 27217 ft | 362 kts | 1° |
| 2026-04-25 15:47 | 52.23892 | 9.88193 | 26779 ft | 358 kts | 1° |
| 2026-04-25 15:47 | 52.26341 | 9.88960 | 26339 ft | 360 kts | 9° |
| 2026-04-25 15:48 | 52.28744 | 9.90018 | 25912 ft | 356 kts | 8° |
| 2026-04-25 15:48 | 52.31121 | 9.91066 | 25492 ft | 352 kts | 8° |
| 2026-04-25 15:48 | 52.33483 | 9.92103 | 25083 ft | 349 kts | 8° |
| 2026-04-25 15:48 | 52.35811 | 9.93125 | 24689 ft | 346 kts | 8° |
| 2026-04-25 15:49 | 52.38125 | 9.94143 | 24263 ft | 343 kts | 8° |
| 2026-04-25 15:49 | 52.40419 | 9.95152 | 23847 ft | 340 kts | 8° |
| 2026-04-25 15:49 | 52.42691 | 9.96151 | 23402 ft | 336 kts | 8° |
| 2026-04-25 15:49 | 52.44938 | 9.97146 | 22944 ft | 332 kts | 8° |
| 2026-04-25 15:50 | 52.47157 | 9.98132 | 22526 ft | 328 kts | 8° |
| 2026-04-25 15:50 | 52.49354 | 9.99110 | 22101 ft | 326 kts | 7° |
| 2026-04-25 15:50 | 52.51536 | 10.00080 | 21670 ft | 324 kts | 7° |
| 2026-04-25 15:50 | 52.53700 | 10.01039 | 21249 ft | 322 kts | 7° |
| 2026-04-25 15:51 | 52.55857 | 10.01991 | 20825 ft | 320 kts | 7° |
| 2026-04-25 15:51 | 52.57279 | 10.02621 | 20545 ft | 319 kts | 7° |
| 2026-04-25 15:51 | 52.60132 | 10.03888 | 19989 ft | 317 kts | 7° |
| 2026-04-25 15:51 | 52.62252 | 10.04834 | 19559 ft | 315 kts | 7° |
| 2026-04-25 15:52 | 52.64357 | 10.05777 | 19137 ft | 312 kts | 7° |
| 2026-04-25 15:52 | 52.66422 | 10.06706 | 18718 ft | 311 kts | 7° |
| 2026-04-25 15:52 | 52.68502 | 10.07645 | 18291 ft | 309 kts | 7° |
| 2026-04-25 15:52 | 52.70567 | 10.08576 | 17835 ft | 307 kts | 7° |
| 2026-04-25 15:53 | 52.72617 | 10.09499 | 17420 ft | 304 kts | 7° |
| 2026-04-25 15:53 | 52.74645 | 10.10412 | 17009 ft | 302 kts | 6° |
| 2026-04-25 15:53 | 52.76665 | 10.11315 | 16600 ft | 299 kts | 5° |
| 2026-04-25 15:53 | 52.78681 | 10.11819 | 16199 ft | 288 kts | 354° |
| 2026-04-25 15:54 | 52.80670 | 10.11869 | 15817 ft | 285 kts | 353° |
| 2026-04-25 15:54 | 52.82651 | 10.11924 | 15445 ft | 284 kts | 353° |
| 2026-04-25 15:54 | 52.84620 | 10.11989 | 15040 ft | 282 kts | 353° |
| 2026-04-25 15:54 | 52.86573 | 10.12056 | 14650 ft | 280 kts | 353° |
| 2026-04-25 15:55 | 52.88512 | 10.12121 | 14273 ft | 278 kts | 353° |
| 2026-04-25 15:55 | 52.90433 | 10.12184 | 13902 ft | 276 kts | 353° |
| 2026-04-25 15:55 | 52.92351 | 10.12250 | 13492 ft | 274 kts | 353° |
| 2026-04-25 15:55 | 52.94248 | 10.12318 | 13118 ft | 272 kts | 353° |
| 2026-04-25 15:56 | 52.96138 | 10.12386 | 12747 ft | 271 kts | 353° |
| 2026-04-25 15:56 | 52.98015 | 10.12453 | 12381 ft | 269 kts | 353° |
| 2026-04-25 15:56 | 52.99879 | 10.12517 | 12020 ft | 267 kts | 352° |
| 2026-04-25 15:56 | 53.01732 | 10.12577 | 11661 ft | 266 kts | 352° |
| 2026-04-25 15:57 | 53.03574 | 10.12636 | 11304 ft | 264 kts | 352° |
| 2026-04-25 15:57 | 53.05405 | 10.12695 | 10954 ft | 262 kts | 352° |
| 2026-04-25 15:57 | 53.07224 | 10.12752 | 10607 ft | 261 kts | 352° |
| 2026-04-25 15:57 | 53.09031 | 10.12811 | 10297 ft | 258 kts | 352° |
| 2026-04-25 15:58 | 53.10832 | 10.12870 | 10231 ft | 260 kts | 352° |
| 2026-04-25 15:58 | 53.12644 | 10.12927 | 10113 ft | 260 kts | 352° |
| 2026-04-25 15:58 | 53.14458 | 10.12987 | 9907 ft | 262 kts | 352° |
| 2026-04-25 15:58 | 53.16272 | 10.13047 | 9508 ft | 260 kts | 352° |
| 2026-04-25 15:59 | 53.18070 | 10.13107 | 9156 ft | 257 kts | 352° |
| 2026-04-25 15:59 | 53.19853 | 10.13166 | 8817 ft | 255 kts | 352° |
| 2026-04-25 15:59 | 53.21626 | 10.13225 | 8474 ft | 254 kts | 352° |
| 2026-04-25 15:59 | 53.23392 | 10.13285 | 8137 ft | 253 kts | 353° |
| 2026-04-25 16:00 | 53.25150 | 10.13344 | 7801 ft | 252 kts | 353° |
| 2026-04-25 16:00 | 53.25717 | 10.13364 | 7737 ft | 250 kts | 353° |
| 2026-04-25 16:00 | 53.28509 | 10.15102 | 7523 ft | 273 kts | 35° |
| 2026-04-25 16:00 | 53.29556 | 10.17774 | 7401 ft | 279 kts | 60° |
| 2026-04-25 16:01 | 53.30202 | 10.20796 | 7284 ft | 273 kts | 64° |
| 2026-04-25 16:01 | 53.30774 | 10.23775 | 7174 ft | 273 kts | 64° |
| 2026-04-25 16:01 | 53.31331 | 10.26809 | 7056 ft | 274 kts | 68° |
| 2026-04-25 16:01 | 53.31404 | 10.30041 | 6931 ft | 286 kts | 99° |
| 2026-04-25 16:02 | 53.30585 | 10.33067 | 6816 ft | 289 kts | 131° |
| 2026-04-25 16:02 | 53.29066 | 10.35149 | 6672 ft | 279 kts | 162° |
| 2026-04-25 16:02 | 53.27250 | 10.35920 | 6536 ft | 264 kts | 188° |
| 2026-04-25 16:02 | 53.25502 | 10.35511 | 6426 ft | 247 kts | 211° |
| 2026-04-25 16:03 | 53.24063 | 10.34167 | 6276 ft | 230 kts | 231° |
| 2026-04-25 16:03 | 53.23050 | 10.32220 | 6161 ft | 217 kts | 249° |
| 2026-04-25 16:03 | 53.22495 | 10.29962 | 6038 ft | 206 kts | 265° |
| 2026-04-25 16:03 | 53.22376 | 10.27632 | 5901 ft | 199 kts | 279° |
| 2026-04-25 16:04 | 53.22664 | 10.25404 | 5774 ft | 196 kts | 293° |
| 2026-04-25 16:04 | 53.23320 | 10.23420 | 5645 ft | 196 kts | 307° |
| 2026-04-25 16:04 | 53.24297 | 10.21827 | 5515 ft | 198 kts | 321° |
| 2026-04-25 16:04 | 53.25535 | 10.20765 | 5387 ft | 203 kts | 336° |
| 2026-04-25 16:05 | 53.26468 | 10.20368 | 5305 ft | 206 kts | 340° |
| 2026-04-25 16:05 | 53.28316 | 10.19654 | 5139 ft | 205 kts | 340° |
| 2026-04-25 16:05 | 53.31086 | 10.18571 | 4910 ft | 204 kts | 340° |
| 2026-04-25 16:06 | 53.32465 | 10.18033 | 4781 ft | 203 kts | 339° |
| 2026-04-25 16:06 | 53.33837 | 10.17494 | 4652 ft | 202 kts | 339° |
| 2026-04-25 16:06 | 53.35206 | 10.16953 | 4512 ft | 202 kts | 339° |
| 2026-04-25 16:06 | 53.36572 | 10.16414 | 4386 ft | 201 kts | 340° |
| 2026-04-25 16:07 | 53.37937 | 10.15877 | 4253 ft | 201 kts | 340° |
| 2026-04-25 16:07 | 53.38398 | 10.15696 | 4212 ft | 202 kts | 340° |
| 2026-04-25 16:07 | 53.40677 | 10.14801 | 3988 ft | 203 kts | 340° |
| 2026-04-25 16:07 | 53.42053 | 10.14258 | 3861 ft | 203 kts | 341° |
| 2026-04-25 16:08 | 53.43426 | 10.13719 | 3687 ft | 202 kts | 341° |
| 2026-04-25 16:08 | 53.44793 | 10.13181 | 3558 ft | 202 kts | 341° |
| 2026-04-25 16:08 | 53.46154 | 10.12645 | 3393 ft | 197 kts | 341° |
| 2026-04-25 16:08 | 53.47461 | 10.12132 | 3227 ft | 190 kts | 341° |
| 2026-04-25 16:09 | 53.48738 | 10.11629 | 3057 ft | 188 kts | 341° |
| 2026-04-25 16:09 | 53.49929 | 10.10900 | 2877 ft | 183 kts | 330° |
| 2026-04-25 16:09 | 53.51064 | 10.09934 | 2621 ft | 183 kts | 329° |
| 2026-04-25 16:09 | 53.52172 | 10.08984 | 2400 ft | 173 kts | 329° |
| 2026-04-25 16:10 | 53.53193 | 10.08111 | 2149 ft | 157 kts | 328° |
| 2026-04-25 16:10 | 53.54131 | 10.07308 | 1957 ft | 141 kts | 328° |
| 2026-04-25 16:10 | 53.54974 | 10.06585 | 1781 ft | 135 kts | 327° |
| 2026-04-25 16:10 | 53.55798 | 10.05871 | 1595 ft | 132 kts | 328° |
| 2026-04-25 16:11 | 53.56611 | 10.05167 | 1424 ft | 131 kts | 328° |
| 2026-04-25 16:11 | 53.57420 | 10.04465 | 1273 ft | 131 kts | 328° |
| 2026-04-25 16:11 | 53.58229 | 10.03760 | 1091 ft | 130 kts | 326° |
| 2026-04-25 16:11 | 53.59034 | 10.03063 | 920 ft | 131 kts | 327° |
| 2026-04-25 16:12 | 53.59852 | 10.02354 | 742 ft | 134 kts | 327° |
| 2026-04-25 16:12 | 53.60684 | 10.01638 | 551 ft | 134 kts | 328° |
| 2026-04-25 16:12 | 53.61502 | 10.00930 | 393 ft | 130 kts | 326° |
| 2026-04-25 16:12 | 53.61774 | 10.00693 | 320 ft | 131 kts | 328° |
| 2026-04-25 16:13 | 53.63114 | 9.99534 | 56 ft | 128 kts | 327° |
| 2026-04-25 16:13 | 53.63821 | 9.98916 | 47 ft | 94 kts | 333° |
| 2026-04-25 16:13 | 53.64252 | 9.98550 | 55 ft | 45 kts | 333° |
| 2026-04-25 16:13 | 53.64464 | 9.98386 | 55 ft | 27 kts | 345° |
| 2026-04-25 16:14 | 53.64599 | 9.98372 | 57 ft | 17 kts | 5° |
| 2026-04-25 16:14 | 53.64687 | 9.98410 | 51 ft | 12 kts | 41° |
| 2026-04-25 16:14 | 53.64668 | 9.98526 | 53 ft | 12 kts | 147° |
| 2026-04-25 16:14 | 53.64586 | 9.98599 | 51 ft | 14 kts | 153° |
| 2026-04-25 16:15 | 53.64492 | 9.98679 | 51 ft | 16 kts | 153° |
| 2026-04-25 16:15 | 53.64388 | 9.98769 | 49 ft | 18 kts | 152° |
| 2026-04-25 16:15 | 53.64274 | 9.98868 | 50 ft | 19 kts | 153° |
| 2026-04-25 16:15 | 53.64149 | 9.98976 | 49 ft | 21 kts | 153° |
| 2026-04-25 16:16 | 53.64016 | 9.99090 | 48 ft | 22 kts | 153° |
| 2026-04-25 16:16 | 53.63876 | 9.99210 | 48 ft | 23 kts | 153° |
| 2026-04-25 16:16 | 53.63750 | 9.99381 | 48 ft | 24 kts | 130° |
| 2026-04-25 16:16 | 53.63650 | 9.99610 | 49 ft | 24 kts | 126° |
| 2026-04-25 16:17 | 53.63556 | 9.99827 | 50 ft | 22 kts | 126° |
| 2026-04-25 16:17 | 53.63479 | 10.00008 | 49 ft | 18 kts | 126° |
| 2026-04-25 16:17 | 53.63416 | 10.00153 | 47 ft | 12 kts | 126° |
| 2026-04-25 16:17 | 53.63380 | 10.00221 | 48 ft | 5 kts | 141° |
| 2026-04-25 16:18 | 53.63370 | 10.00286 | 48 ft | 7 kts | 87° |
| 2026-04-25 16:18 | 53.63371 | 10.00308 | 48 ft | 4 kts | 86° |
| 2026-04-25 16:18 | 53.63373 | 10.00350 | 48 ft | 0 kts | 86° |